Time;durP1;ratioP1;P1;durP2;ratioP2;P2;SDS_P1;SDS_P2;PMS_P1;PMS_P2;Temp;Humidity;BMP_temperature;BMP_pressure;BME280_temperature;BME280_humidity;BME280_pressure;Samples;Min_cycle;Max_cycle;Signal;HPM_P1;HPM_P2
2021/09/12 00:00:40;;;;;;;7.03;5.80;;;;;;;17.93;72.00;96918.78;5095193;28;20668;-66
2021/09/12 00:03:06;;;;;;;5.53;5.03;;;;;;;17.81;72.39;96923.88;5095655;28;20664;-67
2021/09/12 00:05:33;;;;;;;6.70;5.60;;;;;;;17.78;72.90;96924.28;5096082;28;20787;-65
2021/09/12 00:07:58;;;;;;;5.73;5.20;;;;;;;17.95;72.14;96924.69;5094494;28;20953;-66
2021/09/12 00:10:24;;;;;;;7.33;5.63;;;;;;;17.57;73.52;96923.47;5095685;28;20424;-66
2021/09/12 00:12:50;;;;;;;6.67;5.53;;;;;;;17.66;73.03;96924.91;5097049;28;20193;-66
2021/09/12 00:15:16;;;;;;;8.67;5.80;;;;;;;17.69;72.94;96925.53;5096886;28;20219;-67
2021/09/12 00:17:41;;;;;;;7.63;5.33;;;;;;;17.72;72.86;96914.53;5087981;28;20340;-68
2021/09/12 00:20:08;;;;;;;6.03;5.37;;;;;;;17.65;73.37;96919.81;5095480;28;20210;-66
2021/09/12 00:22:33;;;;;;;12.57;6.23;;;;;;;17.58;73.32;96914.53;5097369;28;20186;-66
2021/09/12 00:25:00;;;;;;;5.97;5.47;;;;;;;17.77;72.62;96910.22;5095229;28;20919;-67
2021/09/12 00:27:25;;;;;;;5.43;4.93;;;;;;;17.72;72.80;96914.53;5096232;28;20562;-65
2021/09/12 00:29:51;;;;;;;7.33;5.77;;;;;;;17.74;72.48;96913.28;5094082;28;20427;-66
2021/09/12 00:32:17;;;;;;;6.27;5.60;;;;;;;17.74;72.23;96918.59;5093515;28;20181;-65
2021/09/12 00:34:42;;;;;;;7.23;5.80;;;;;;;17.66;72.38;96913.50;5092352;28;20619;-65
2021/09/12 00:37:08;;;;;;;6.53;5.60;;;;;;;17.56;72.77;96923.69;5092008;28;20193;-66
2021/09/12 00:39:33;;;;;;;5.13;4.63;;;;;;;17.66;72.51;96924.09;5094768;28;20209;-66
2021/09/12 00:41:59;;;;;;;8.80;5.20;;;;;;;17.73;71.97;96916.16;5094157;28;20268;-66
2021/09/12 00:44:25;;;;;;;6.53;5.03;;;;;;;17.74;71.83;96918.59;5094961;28;20198;-65
2021/09/12 00:46:54;;;;;;;7.90;5.70;;;;;;;17.76;71.54;96913.09;5095241;28;20189;-64
2021/09/12 00:49:20;;;;;;;5.77;5.10;;;;;;;17.59;72.12;96913.50;5086061;28;20182;-66
2021/09/12 00:51:46;;;;;;;9.80;5.70;;;;;;;17.65;72.00;96915.31;5094861;28;20428;-66
2021/09/12 00:54:12;;;;;;;6.07;5.50;;;;;;;17.64;71.79;96923.47;5093208;28;20965;-68
2021/09/12 00:56:39;;;;;;;6.40;5.20;;;;;;;17.65;71.86;96920.63;5094772;28;20235;-66
2021/09/12 00:59:07;;;;;;;6.10;5.50;;;;;;;17.72;71.39;96915.31;5095154;28;20213;-67
2021/09/12 01:01:33;;;;;;;8.60;6.40;;;;;;;17.68;71.35;96910.63;5096312;28;20424;-67
2021/09/12 01:03:59;;;;;;;7.90;5.97;;;;;;;17.62;71.43;96920.22;5095046;28;20447;-66
2021/09/12 01:06:25;;;;;;;6.47;5.87;;;;;;;17.57;71.76;96918.19;5078266;28;20427;-65
2021/09/12 01:08:50;;;;;;;5.57;5.03;;;;;;;17.69;71.27;96920.22;5093505;28;20455;-65
2021/09/12 01:11:16;;;;;;;6.37;5.77;;;;;;;17.69;70.97;96920.22;5095568;28;20235;-65
2021/09/12 01:13:42;;;;;;;5.80;5.10;;;;;;;17.70;71.01;96911.25;5098188;28;20212;-66
2021/09/12 01:16:13;;;;;;;5.37;4.97;;;;;;;17.60;71.53;96909.84;5100033;28;20720;-64
2021/09/12 01:18:39;;;;;;;10.57;5.47;;;;;;;17.60;71.54;96907.19;5092257;28;20953;-65
2021/09/12 01:21:08;;;;;;;5.40;4.90;;;;;;;17.64;71.29;96907.59;5099642;28;20427;-65
2021/09/12 01:23:33;;;;;;;5.70;5.13;;;;;;;17.40;71.84;96899.25;5100004;28;20492;-65
2021/09/12 01:25:59;;;;;;;14.40;5.60;;;;;;;17.43;71.70;96904.13;5098366;28;20887;-65
2021/09/12 01:28:25;;;;;;;5.90;5.30;;;;;;;17.47;71.41;96900.03;5098400;28;20177;-66
2021/09/12 01:30:50;;;;;;;7.70;5.57;;;;;;;17.32;72.16;96897.59;5099064;28;20276;-66
2021/09/12 01:33:16;;;;;;;6.93;5.60;;;;;;;17.26;72.26;96901.06;5100157;28;20292;-66
2021/09/12 01:35:41;;;;;;;10.83;5.80;;;;;;;17.10;73.05;96896.16;5100099;28;20542;-66
2021/09/12 01:38:07;;;;;;;7.70;5.00;;;;;;;17.31;72.27;96892.53;5099441;28;20276;-66
2021/09/12 01:40:33;;;;;;;5.40;4.93;;;;;;;17.26;72.03;96905.53;5100558;28;20200;-66
2021/09/12 01:42:58;;;;;;;11.00;5.57;;;;;;;17.27;72.21;96904.53;5099946;28;20197;-65
2021/09/12 01:45:24;;;;;;;7.40;5.10;;;;;;;17.28;71.93;96901.66;5099218;28;20246;-66
2021/09/12 01:47:50;;;;;;;7.17;5.43;;;;;;;17.34;71.65;96902.69;5089328;28;20644;-66
2021/09/12 01:50:16;;;;;;;7.37;5.20;;;;;;;17.22;72.16;96907.78;5098879;28;20201;-65
2021/09/12 01:52:42;;;;;;;4.93;4.53;;;;;;;17.30;71.78;96904.13;5098752;28;20181;-67
2021/09/12 01:55:08;;;;;;;6.30;5.70;;;;;;;17.39;71.44;96900.25;5097334;28;20462;-63
2021/09/12 01:57:34;;;;;;;5.23;4.73;;;;;;;17.45;71.04;96890.69;5098571;28;20186;-65
2021/09/12 01:59:59;;;;;;;12.20;6.10;;;;;;;17.40;70.58;96895.75;5097999;28;20804;-64
2021/09/12 02:02:25;;;;;;;6.10;5.50;;;;;;;17.32;70.66;96899.44;5097094;28;20185;-68
2021/09/12 02:04:50;;;;;;;5.83;5.23;;;;;;;17.34;70.32;96894.75;5097020;28;20299;-65
2021/09/12 02:07:16;;;;;;;6.87;6.03;;;;;;;17.29;70.29;96892.69;5096708;28;20222;-66
2021/09/12 02:09:42;;;;;;;6.90;5.67;;;;;;;17.29;70.31;96898.00;5099777;28;20185;-65
2021/09/12 02:12:07;;;;;;;11.60;6.67;;;;;;;17.26;70.25;96898.44;5099522;28;20186;-67
2021/09/12 02:14:33;;;;;;;6.23;5.37;;;;;;;17.23;70.06;96900.63;5098612;28;20205;-65
2021/09/12 02:16:59;;;;;;;10.77;6.50;;;;;;;17.16;70.38;96905.94;5096308;28;20208;-66
2021/09/12 02:19:24;;;;;;;7.00;6.30;;;;;;;17.15;70.37;96899.81;5091659;28;20205;-66
2021/09/12 02:21:50;;;;;;;7.90;5.90;;;;;;;17.13;70.40;96903.72;5097803;28;20713;-65
2021/09/12 02:24:15;;;;;;;7.27;6.00;;;;;;;17.11;70.63;96898.59;5095889;28;20194;-66
2021/09/12 02:26:41;;;;;;;8.23;5.80;;;;;;;17.09;70.33;96900.63;5097421;28;20209;-65
2021/09/12 02:29:06;;;;;;;6.20;5.67;;;;;;;17.07;70.45;96894.72;5095543;28;20264;-66
2021/09/12 02:31:32;;;;;;;7.40;5.90;;;;;;;17.07;70.44;96899.19;5098160;28;20676;-65
2021/09/12 02:33:58;;;;;;;7.30;5.20;;;;;;;17.04;70.42;96893.28;5097806;28;20212;-64
2021/09/12 02:36:24;;;;;;;5.93;5.43;;;;;;;17.04;70.47;96892.47;5098037;28;20626;-64
2021/09/12 02:38:50;;;;;;;6.30;5.27;;;;;;;17.02;70.83;96883.91;5096918;28;20455;-66
2021/09/12 02:41:16;;;;;;;6.17;5.60;;;;;;;17.01;70.87;96888.38;5097684;28;20499;-66
2021/09/12 02:43:41;;;;;;;7.70;5.53;;;;;;;16.99;70.87;96879.03;5097787;28;20233;-66
2021/09/12 02:46:07;;;;;;;8.43;5.37;;;;;;;16.88;71.24;96877.78;5095506;28;20193;-66
2021/09/12 02:48:32;;;;;;;7.67;6.00;;;;;;;16.77;71.44;96880.97;5087980;28;20189;-65
2021/09/12 02:50:58;;;;;;;7.20;5.50;;;;;;;16.83;71.32;96881.00;5096598;28;20196;-65
2021/09/12 02:53:24;;;;;;;5.67;5.20;;;;;;;16.83;71.08;96877.53;5096855;28;20261;-66
2021/09/12 02:55:49;;;;;;;6.80;4.83;;;;;;;16.82;71.02;96882.00;5096040;28;20259;-65
2021/09/12 02:58:15;;;;;;;6.20;5.57;;;;;;;16.73;71.51;96878.75;5096687;28;20198;-66
2021/09/12 03:00:40;;;;;;;5.50;5.00;;;;;;;16.74;71.28;96877.75;5097015;28;20178;-66
2021/09/12 03:03:06;;;;;;;10.83;6.80;;;;;;;16.76;70.87;96884.66;5095276;28;20264;-66
2021/09/12 03:05:31;;;;;;;6.80;5.53;;;;;;;16.72;70.61;96876.28;5097614;28;20253;-66
2021/09/12 03:07:57;;;;;;;6.43;5.00;;;;;;;16.65;71.11;96891.34;5102330;28;20185;-66
2021/09/12 03:10:23;;;;;;;11.70;5.20;;;;;;;16.53;71.44;96885.78;5096587;28;20181;-66
2021/09/12 03:12:48;;;;;;;5.90;5.40;;;;;;;16.54;71.32;96888.25;5094376;28;20667;-66
2021/09/12 03:15:14;;;;;;;7.17;5.40;;;;;;;16.54;71.44;96882.13;5094274;28;20197;-65
2021/09/12 03:17:39;;;;;;;7.50;6.43;;;;;;;16.55;71.34;96889.06;5088052;28;20645;-65
2021/09/12 03:20:06;;;;;;;8.23;5.33;;;;;;;16.54;71.47;96893.53;5093704;28;20308;-66
2021/09/12 03:22:31;;;;;;;7.67;5.43;;;;;;;16.58;71.27;96888.66;5095768;28;20245;-65
2021/09/12 03:24:57;;;;;;;5.30;4.80;;;;;;;16.57;70.96;96885.19;5096058;28;20478;-67
2021/09/12 03:27:22;;;;;;;9.13;4.97;;;;;;;16.55;70.86;96889.88;5094003;28;20188;-64
2021/09/12 03:29:48;;;;;;;7.70;5.33;;;;;;;16.51;70.81;96883.34;5096294;28;20231;-66
2021/09/12 03:32:13;;;;;;;5.60;5.10;;;;;;;16.47;70.70;96881.31;5087427;28;20268;-65
2021/09/12 03:34:39;;;;;;;6.47;4.60;;;;;;;16.43;70.69;96881.69;5096831;28;20232;-65
2021/09/12 03:37:05;;;;;;;11.20;5.20;;;;;;;16.41;70.38;96881.06;5088754;28;20195;-66
2021/09/12 03:39:30;;;;;;;5.03;4.53;;;;;;;16.38;70.68;96873.53;5094305;28;20202;-66
2021/09/12 03:41:56;;;;;;;4.83;4.10;;;;;;;16.39;70.47;96872.50;5096259;28;20235;-65
2021/09/12 03:44:22;;;;;;;6.53;4.73;;;;;;;16.38;70.22;96867.44;5096148;28;20208;-65
2021/09/12 03:46:48;;;;;;;6.17;4.67;;;;;;;16.32;70.14;96874.31;5097024;28;20177;-65
2021/09/12 03:49:13;;;;;;;5.47;5.07;;;;;;;16.29;70.07;96877.34;5087634;28;20404;-64
2021/09/12 03:51:39;;;;;;;5.67;4.77;;;;;;;16.25;70.17;96874.28;5097491;28;20177;-65
2021/09/12 03:54:04;;;;;;;6.23;4.80;;;;;;;16.22;70.13;96871.22;5097118;28;20201;-65
2021/09/12 03:56:30;;;;;;;5.57;5.07;;;;;;;16.16;70.17;96864.91;5097413;28;20193;-66
2021/09/12 03:58:56;;;;;;;6.80;4.00;;;;;;;16.18;70.46;96881.38;5095346;28;20201;-67
2021/09/12 04:01:21;;;;;;;9.90;4.93;;;;;;;16.16;70.29;96880.75;5097162;28;20248;-66
2021/09/12 04:03:47;;;;;;;5.63;4.80;;;;;;;16.15;70.15;96870.38;5097396;28;20301;-66
2021/09/12 04:06:12;;;;;;;5.27;4.77;;;;;;;16.15;70.28;96868.56;5093436;28;20182;-66
2021/09/12 04:08:38;;;;;;;4.83;4.43;;;;;;;16.12;70.02;96871.59;5097168;28;20178;-66
2021/09/12 04:11:04;;;;;;;5.17;4.77;;;;;;;16.12;69.88;96869.78;5096630;28;20181;-66
2021/09/12 04:13:29;;;;;;;4.63;4.23;;;;;;;16.09;69.99;96864.88;5098192;28;20292;-65
2021/09/12 04:15:55;;;;;;;4.33;3.93;;;;;;;16.06;70.00;96872.38;5098102;28;20197;-65
2021/09/12 04:18:20;;;;;;;5.17;4.70;;;;;;;16.02;70.17;96871.13;5095149;28;20201;-65
2021/09/12 04:20:46;;;;;;;8.30;4.90;;;;;;;16.05;69.94;96870.75;5096922;28;20272;-65
2021/09/12 04:23:11;;;;;;;7.73;4.93;;;;;;;16.04;70.08;96874.41;5094531;28;20186;-65
2021/09/12 04:25:37;;;;;;;5.10;4.10;;;;;;;16.01;69.95;96864.22;5095460;28;20204;-64
2021/09/12 04:28:03;;;;;;;5.07;4.53;;;;;;;15.96;70.06;96870.88;5095083;28;20224;-64
2021/09/12 04:30:28;;;;;;;5.53;4.80;;;;;;;15.94;70.04;96872.09;5095530;28;20181;-65
2021/09/12 04:32:54;;;;;;;6.00;5.40;;;;;;;15.90;70.44;96874.31;5095401;28;20227;-65
2021/09/12 04:35:20;;;;;;;6.00;5.50;;;;;;;15.84;70.54;96872.41;5095187;28;20205;-64
2021/09/12 04:37:45;;;;;;;5.70;4.87;;;;;;;15.78;70.79;96871.34;5093187;28;20193;-65
2021/09/12 04:40:11;;;;;;;5.20;4.70;;;;;;;15.87;70.74;96876.53;5095833;28;20213;-63
2021/09/12 04:42:37;;;;;;;6.27;5.60;;;;;;;15.88;70.65;96873.69;5094179;28;20196;-65
2021/09/12 04:45:04;;;;;;;6.27;5.27;;;;;;;15.86;70.64;96881.00;5093481;28;20740;-65
2021/09/12 04:47:30;;;;;;;5.90;5.40;;;;;;;15.84;70.85;96877.69;5095141;28;20186;-65
2021/09/12 04:49:56;;;;;;;7.67;5.67;;;;;;;15.79;71.26;96877.47;5097583;28;20415;-65
2021/09/12 04:52:21;;;;;;;5.57;5.07;;;;;;;15.63;71.46;96868.00;5099657;28;20174;-66
2021/09/12 04:54:47;;;;;;;5.97;4.70;;;;;;;15.58;71.49;96875.69;5100643;28;20209;-66
2021/09/12 04:57:12;;;;;;;6.07;4.27;;;;;;;15.65;71.13;96876.56;5113153;28;20343;-67
2021/09/12 04:59:38;;;;;;;7.70;5.07;;;;;;;15.74;70.91;96882.50;5109630;28;20213;-66
2021/09/12 05:02:04;;;;;;;5.73;5.10;;;;;;;15.70;71.13;96876.81;5103923;28;20188;-66
2021/09/12 05:04:30;;;;;;;5.57;4.33;;;;;;;15.74;70.64;96883.34;5106385;28;20208;-64
2021/09/12 05:06:56;;;;;;;4.70;4.30;;;;;;;15.78;70.63;96883.78;5093878;28;20428;-66
2021/09/12 05:09:23;;;;;;;5.33;4.83;;;;;;;15.77;70.22;96882.94;5095686;28;20176;-65
2021/09/12 05:11:49;;;;;;;6.10;4.90;;;;;;;15.77;70.33;96882.13;5094399;28;20788;-64
2021/09/12 05:14:15;;;;;;;4.90;4.50;;;;;;;15.76;70.22;96886.59;5096048;28;21026;-65
2021/09/12 05:16:41;;;;;;;7.50;4.97;;;;;;;15.79;70.03;96886.19;5093089;28;20448;-65
2021/09/12 05:19:06;;;;;;;4.57;4.13;;;;;;;15.83;69.96;96886.63;5095113;28;20249;-65
2021/09/12 05:21:32;;;;;;;5.20;4.50;;;;;;;15.87;70.06;96881.81;5095648;28;20188;-65
2021/09/12 05:23:58;;;;;;;12.07;4.70;;;;;;;15.88;70.24;96891.38;5094367;28;20576;-65
2021/09/12 05:26:23;;;;;;;5.17;4.67;;;;;;;15.93;70.14;96896.88;5094141;28;20687;-65
2021/09/12 05:28:49;;;;;;;5.40;4.17;;;;;;;15.86;70.16;96891.56;5093861;28;20177;-64
2021/09/12 05:31:14;;;;;;;7.70;5.10;;;;;;;15.90;70.14;96887.53;5094179;28;20188;-65
2021/09/12 05:33:40;;;;;;;6.73;5.00;;;;;;;15.92;70.31;96895.25;5093045;28;20206;-65
2021/09/12 05:36:06;;;;;;;5.20;4.70;;;;;;;16.08;70.11;96894.97;5090413;28;20241;-64
2021/09/12 05:38:31;;;;;;;5.43;4.93;;;;;;;16.17;70.08;96889.50;5084778;28;20206;-65
2021/09/12 05:40:57;;;;;;;5.37;4.97;;;;;;;16.13;70.34;96889.88;5091626;28;20242;-63
2021/09/12 05:43:22;;;;;;;5.27;4.87;;;;;;;16.35;69.90;96892.44;5092614;28;20284;-63
2021/09/12 05:45:48;;;;;;;4.83;4.37;;;;;;;16.55;69.25;96889.06;5091245;28;20200;-65
2021/09/12 05:48:13;;;;;;;5.40;5.00;;;;;;;16.62;68.71;96889.91;5079659;28;20181;-65
2021/09/12 05:50:39;;;;;;;5.47;4.17;;;;;;;16.62;68.34;96897.84;5094790;28;20205;-67
2021/09/12 05:53:09;;;;;;;6.63;4.87;;;;;;;16.37;69.62;96898.38;5095701;28;20177;-66
2021/09/12 05:55:36;;;;;;;7.23;4.00;;;;;;;16.76;68.41;96900.53;5094134;28;20220;-66
2021/09/12 05:58:02;;;;;;;6.00;4.60;;;;;;;16.97;68.23;96908.34;5095187;28;20415;-64
2021/09/12 06:00:28;;;;;;;5.33;4.20;;;;;;;16.93;68.47;96899.13;5097534;28;20454;-66
2021/09/12 06:02:53;;;;;;;6.70;4.13;;;;;;;17.31;68.04;96892.53;5098527;28;20723;-66
2021/09/12 06:05:19;;;;;;;4.10;3.80;;;;;;;17.82;67.24;96899.00;5098434;28;20193;-65
2021/09/12 06:07:44;;;;;;;4.83;3.90;;;;;;;18.46;66.23;96890.53;5098430;28;20189;-65
2021/09/12 06:10:11;;;;;;;5.10;3.90;;;;;;;19.14;62.76;96895.28;5097818;28;20256;-66
2021/09/12 06:12:37;;;;;;;4.17;3.73;;;;;;;19.86;61.41;96894.09;5098924;28;20631;-65
2021/09/12 06:15:03;;;;;;;5.97;3.90;;;;;;;20.44;58.37;96889.41;5098414;28;20467;-66
2021/09/12 06:17:29;;;;;;;6.87;3.40;;;;;;;21.02;57.35;96892.56;5097818;28;20177;-66
2021/09/12 06:19:54;;;;;;;3.73;3.33;;;;;;;21.57;55.99;96891.53;5094956;28;20452;-66
2021/09/12 06:22:20;;;;;;;5.73;3.73;;;;;;;22.14;54.18;96890.16;5096486;28;20177;-66
2021/09/12 06:24:46;;;;;;;8.13;3.23;;;;;;;22.76;51.51;96891.41;5096424;28;20274;-66
2021/09/12 06:27:12;;;;;;;4.90;3.63;;;;;;;23.41;48.63;96889.38;5095636;28;20181;-65
2021/09/12 06:29:37;;;;;;;3.43;2.60;;;;;;;24.27;48.26;96887.41;5096702;28;20249;-67
2021/09/12 06:32:03;;;;;;;5.27;2.60;;;;;;;24.91;45.67;96883.34;5098401;28;20182;-66
2021/09/12 06:34:29;;;;;;;3.60;3.17;;;;;;;25.15;45.38;96893.75;5097979;28;20269;-67
2021/09/12 06:36:56;;;;;;;2.97;2.73;;;;;;;25.10;45.24;96885.66;5095936;28;20640;-67
2021/09/12 06:39:22;;;;;;;4.40;2.70;;;;;;;24.52;46.20;96883.41;5097560;28;20198;-67
2021/09/12 06:41:48;;;;;;;3.70;2.83;;;;;;;23.61;47.62;96883.53;5098078;28;20934;-66
2021/09/12 06:44:14;;;;;;;7.73;3.83;;;;;;;23.01;49.44;96891.06;5089818;28;20442;-66
2021/09/12 06:46:39;;;;;;;8.70;3.87;;;;;;;22.61;51.00;96897.28;5080145;28;20619;-67
2021/09/12 06:49:05;;;;;;;4.07;2.97;;;;;;;22.37;51.13;96896.50;5090915;28;20200;-66
2021/09/12 06:51:31;;;;;;;3.37;2.97;;;;;;;22.28;51.26;96898.72;5087736;28;20178;-65
2021/09/12 06:53:56;;;;;;;3.50;3.20;;;;;;;22.03;52.44;96907.00;5093497;28;20200;-65
2021/09/12 06:56:22;;;;;;;3.60;3.30;;;;;;;21.85;51.81;96907.94;5097994;28;20340;-66
2021/09/12 06:58:48;;;;;;;2.93;2.63;;;;;;;21.67;52.00;96909.66;5098435;28;20202;-65
2021/09/12 07:01:13;;;;;;;3.13;2.90;;;;;;;21.75;52.62;96911.97;5097785;28;20174;-66
2021/09/12 07:03:39;;;;;;;3.53;3.33;;;;;;;21.59;52.97;96908.13;5098301;28;20197;-67
2021/09/12 07:06:04;;;;;;;3.83;3.47;;;;;;;21.58;53.31;96903.00;5095005;28;20180;-66
2021/09/12 07:08:30;;;;;;;3.40;3.20;;;;;;;21.82;53.17;96906.53;5093132;28;20188;-66
2021/09/12 07:10:56;;;;;;;3.17;2.90;;;;;;;21.88;52.48;96910.94;5095944;28;20648;-66
2021/09/12 07:13:21;;;;;;;3.00;2.70;;;;;;;21.84;52.51;96909.78;5095540;28;20430;-66
2021/09/12 07:15:47;;;;;;;2.60;2.50;;;;;;;21.95;52.17;96910.81;5094804;28;20184;-66
2021/09/12 07:18:12;;;;;;;3.03;2.83;;;;;;;22.04;52.42;96909.41;5089775;28;20176;-65
2021/09/12 07:20:38;;;;;;;6.70;3.50;;;;;;;21.99;53.16;96906.63;5096438;28;20264;-66
2021/09/12 07:23:04;;;;;;;3.67;3.20;;;;;;;21.49;54.01;96915.84;5096091;28;20616;-66
2021/09/12 07:25:30;;;;;;;3.63;3.27;;;;;;;21.77;54.35;96920.56;5096743;28;20261;-66
2021/09/12 07:27:56;;;;;;;3.97;3.60;;;;;;;21.75;55.63;96924.50;5094851;28;20192;-65
2021/09/12 07:30:22;;;;;;;4.90;3.50;;;;;;;21.90;55.27;96918.69;5096402;28;20876;-66
2021/09/12 07:32:47;;;;;;;3.90;3.53;;;;;;;21.90;55.92;96924.84;5096811;28;20174;-65
2021/09/12 07:35:13;;;;;;;5.00;3.37;;;;;;;21.96;55.56;96923.13;5096797;28;20203;-66
2021/09/12 07:37:39;;;;;;;7.97;3.50;;;;;;;22.07;55.24;96930.31;5097526;28;20200;-66
2021/09/12 07:40:06;;;;;;;7.00;3.53;;;;;;;22.09;54.99;96933.56;5097715;28;20922;-66
2021/09/12 07:42:32;;;;;;;3.60;3.30;;;;;;;21.76;55.25;96937.59;5097976;28;20659;-66
2021/09/12 07:44:57;;;;;;;4.17;3.23;;;;;;;21.93;54.37;96934.25;5097193;28;20776;-66
2021/09/12 07:47:23;;;;;;;4.07;2.80;;;;;;;22.07;54.13;96934.81;5094008;28;20169;-66
2021/09/12 07:49:48;;;;;;;5.37;3.40;;;;;;;22.00;54.43;96934.13;5093101;28;20181;-65
2021/09/12 07:52:14;;;;;;;3.83;3.53;;;;;;;22.25;53.50;96937.38;5097496;28;20185;-65
2021/09/12 07:54:39;;;;;;;3.43;3.13;;;;;;;22.40;52.43;96928.84;5096840;28;20252;-66
2021/09/12 07:57:05;;;;;;;3.03;2.70;;;;;;;22.32;52.75;96944.41;5097453;28;20169;-66
2021/09/12 07:59:31;;;;;;;3.27;2.97;;;;;;;22.19;52.40;96940.94;5096600;28;20205;-66
2021/09/12 08:01:57;;;;;;;3.60;3.30;;;;;;;22.34;52.46;96939.66;5095671;28;20193;-66
2021/09/12 08:04:22;;;;;;;4.47;3.10;;;;;;;22.49;52.51;96942.69;5093803;28;20949;-65
2021/09/12 08:06:48;;;;;;;7.23;2.87;;;;;;;22.77;51.51;96941.13;5096576;28;20174;-66
2021/09/12 08:09:13;;;;;;;3.93;2.90;;;;;;;22.72;51.08;96937.53;5087776;28;20192;-64
2021/09/12 08:11:39;;;;;;;4.63;2.90;;;;;;;22.51;50.40;96940.59;5097332;28;20169;-65
2021/09/12 08:14:05;;;;;;;4.27;2.87;;;;;;;22.35;51.17;96946.63;5097545;28;20743;-66
2021/09/12 08:16:30;;;;;;;3.40;3.03;;;;;;;22.62;49.92;96948.81;5099827;28;20177;-65
2021/09/12 08:18:56;;;;;;;7.40;4.90;;;;;;;23.01;48.57;96949.03;5090345;28;20216;-66
2021/09/12 08:21:22;;;;;;;7.10;3.43;;;;;;;23.22;47.62;96944.09;5096184;28;20181;-67
2021/09/12 08:23:47;;;;;;;3.83;3.03;;;;;;;23.37;47.69;96949.72;5096710;28;20201;-66
2021/09/12 08:26:13;;;;;;;3.30;2.93;;;;;;;23.72;47.32;96956.69;5098052;28;20260;-66
2021/09/12 08:28:38;;;;;;;12.00;9.13;;;;;;;23.72;46.82;96958.59;5095398;28;20207;-66
2021/09/12 08:31:05;;;;;;;4.80;3.07;;;;;;;23.88;46.19;96954.28;5095104;28;20185;-66
2021/09/12 08:33:30;;;;;;;4.83;4.33;;;;;;;24.06;46.49;96955.91;5095339;28;20269;-66
2021/09/12 08:35:56;;;;;;;4.27;3.87;;;;;;;24.22;46.08;96956.94;5094579;28;20188;-66
2021/09/12 08:38:22;;;;;;;4.77;4.03;;;;;;;24.35;46.30;96953.91;5093919;28;20678;-66
2021/09/12 08:40:57;;;;;;;4.50;3.07;;;;;;;24.41;46.62;96953.97;5094199;28;20233;-65
2021/09/12 08:43:23;;;;;;;4.60;3.13;;;;;;;23.98;47.63;96961.69;5093324;28;20423;-65
2021/09/12 08:45:49;;;;;;;3.43;2.70;;;;;;;24.03;46.18;96959.91;5093735;28;20473;-64
2021/09/12 08:48:15;;;;;;;7.83;3.90;;;;;;;23.62;47.23;96962.72;5090312;28;20886;-65
2021/09/12 08:50:41;;;;;;;7.00;6.03;;;;;;;24.45;45.71;96955.09;5096792;28;20182;-67
2021/09/12 08:53:07;;;;;;;7.90;2.77;;;;;;;24.27;46.68;96954.34;5096104;28;20499;-65
2021/09/12 08:55:32;;;;;;;9.57;6.70;;;;;;;24.49;46.86;96950.88;5095779;28;20261;-66
2021/09/12 08:57:59;;;;;;;6.23;5.63;;;;;;;24.73;45.36;96947.97;5095538;28;20178;-66
2021/09/12 09:00:25;;;;;;;2.83;2.53;;;;;;;24.87;44.14;96951.09;5095283;28;20220;-66
2021/09/12 09:02:59;;;;;;;2.47;2.27;;;;;;;24.18;45.54;96951.28;5095087;28;20420;-65
2021/09/12 09:05:37;;;;;;;4.27;2.97;;;;;;;23.95;47.07;96952.22;5093686;28;20192;-66
2021/09/12 09:08:21;;;;;;;4.90;4.50;;;;;;;24.66;45.24;96940.91;5096442;28;20497;-66
2021/09/12 09:10:51;;;;;;;3.03;2.20;;;;;;;24.92;43.97;96949.28;5096587;28;20800;-66
2021/09/12 09:13:30;;;;;;;4.73;2.60;;;;;;;25.12;43.29;96948.69;5096966;28;20412;-67
2021/09/12 09:16:00;;;;;;;3.30;3.00;;;;;;;25.06;43.39;96948.88;5094299;28;20918;-64
2021/09/12 09:18:36;;;;;;;3.67;2.43;;;;;;;24.01;44.86;96953.16;5091157;28;20424;-67
2021/09/12 09:21:23;;;;;;;2.70;2.00;;;;;;;24.30;44.47;96943.13;5094549;28;20429;-65
2021/09/12 09:24:08;;;;;;;2.00;1.87;;;;;;;24.93;43.03;96942.03;5095273;28;20508;-65
2021/09/12 09:26:41;;;;;;;2.60;2.20;;;;;;;25.03;42.66;96947.50;5095104;28;20427;-66
2021/09/12 09:29:08;;;;;;;3.30;2.33;;;;;;;25.32;42.02;96936.53;5095837;28;20421;-66
2021/09/12 09:31:33;;;;;;;2.40;2.20;;;;;;;25.21;41.42;96932.94;5095268;28;20471;-65
2021/09/12 09:34:19;;;;;;;3.40;2.57;;;;;;;25.58;42.07;96937.59;5098500;28;20810;-67
2021/09/12 09:36:49;;;;;;;2.93;2.70;;;;;;;25.43;41.91;96929.44;5100748;28;20204;-65
2021/09/12 09:39:33;;;;;;;2.63;2.00;;;;;;;25.04;43.26;96932.25;5098768;28;20467;-65
2021/09/12 09:41:59;;;;;;;2.20;2.00;;;;;;;24.63;43.69;96928.00;5096647;28;20866;-66
2021/09/12 09:44:24;;;;;;;2.03;1.93;;;;;;;25.04;42.94;96929.56;5097897;28;20539;-65
2021/09/12 09:46:50;;;;;;;2.80;2.60;;;;;;;25.48;42.43;96923.28;5097686;28;20194;-66
2021/09/12 09:49:29;;;;;;;2.60;2.40;;;;;;;23.90;44.91;96925.41;5094701;28;20269;-66
2021/09/12 09:51:57;;;;;;;4.27;2.60;;;;;;;24.96;42.78;96918.22;5099341;28;20273;-66
2021/09/12 09:54:26;;;;;;;3.70;1.80;;;;;;;25.56;42.39;96929.00;5099124;28;20435;-65
2021/09/12 09:56:53;;;;;;;2.87;2.50;;;;;;;25.93;41.55;96924.69;5098860;28;20430;-66
2021/09/12 09:59:20;;;;;;;3.90;2.60;;;;;;;26.23;40.81;96923.31;5097194;28;20451;-65
2021/09/12 10:01:51;;;;;;;3.40;2.57;;;;;;;24.42;44.20;96934.19;5098781;28;20421;-67
2021/09/12 10:04:18;;;;;;;2.43;2.20;;;;;;;25.50;42.32;96929.22;5098687;28;20507;-65
2021/09/12 10:06:45;;;;;;;3.07;2.20;;;;;;;25.70;41.76;96932.06;5099824;28;20415;-68
2021/09/12 10:09:15;;;;;;;2.30;2.20;;;;;;;26.18;39.79;96936.69;5098428;28;20454;-66
2021/09/12 10:11:45;;;;;;;2.17;1.83;;;;;;;25.83;40.64;96936.19;5099316;28;20461;-65
2021/09/12 10:14:12;;;;;;;2.40;2.20;;;;;;;25.00;41.63;96927.38;5099248;28;20432;-66
2021/09/12 10:16:38;;;;;;;5.10;1.90;;;;;;;24.68;42.43;96924.59;5096871;28;20486;-67
2021/09/12 10:19:04;;;;;;;1.87;1.73;;;;;;;23.62;44.75;96927.13;5092483;28;20459;-66
2021/09/12 10:21:30;;;;;;;7.53;2.10;;;;;;;24.15;43.70;96921.50;5098159;28;20432;-69
2021/09/12 10:24:08;;;;;;;2.57;2.13;;;;;;;23.78;44.82;96922.81;5098186;28;20216;-66
2021/09/12 10:26:37;;;;;;;4.00;2.30;;;;;;;23.70;45.71;96917.88;5101713;28;20428;-66
2021/09/12 10:29:03;;;;;;;5.53;2.57;;;;;;;23.72;45.44;96918.47;5098547;28;20424;-66
2021/09/12 10:31:32;;;;;;;2.47;2.27;;;;;;;24.33;44.27;96918.53;5098208;28;20803;-67
2021/09/12 10:34:11;;;;;;;2.40;1.90;;;;;;;24.20;44.40;96916.22;5099103;28;20522;-66
2021/09/12 10:36:38;;;;;;;3.37;2.23;;;;;;;24.00;44.73;96906.84;5095645;28;20451;-67
2021/09/12 10:39:32;;;;;;;2.97;2.40;;;;;;;23.97;44.73;96907.34;5097931;28;20501;-66
2021/09/12 10:42:09;;;;;;;2.57;2.23;;;;;;;23.78;44.99;96899.56;5097169;28;20453;-66
2021/09/12 10:44:35;;;;;;;3.00;2.33;;;;;;;24.27;43.76;96911.50;5096863;28;20474;-68
2021/09/12 10:47:08;;;;;;;2.40;2.20;;;;;;;24.72;42.13;96900.81;5097961;28;20894;-66
2021/09/12 10:49:34;;;;;;;2.20;2.00;;;;;;;24.90;42.80;96897.81;5093161;28;20430;-67
2021/09/12 10:51:59;;;;;;;3.30;2.03;;;;;;;25.35;40.81;96903.03;5097045;28;20488;-65
2021/09/12 10:54:25;;;;;;;4.73;2.37;;;;;;;25.54;41.04;96906.16;5096458;28;20260;-68
2021/09/12 10:57:05;;;;;;;5.10;2.30;;;;;;;26.28;39.75;96898.34;5098086;28;20190;-66
2021/09/12 10:59:32;;;;;;;2.73;2.20;;;;;;;26.70;37.63;96892.06;5097860;28;20201;-66
2021/09/12 11:01:57;;;;;;;8.30;1.90;;;;;;;27.44;36.29;96892.78;5097189;28;20416;-67
2021/09/12 11:04:33;;;;;;;2.50;2.20;;;;;;;27.48;36.43;96895.72;5096579;28;20440;-67
2021/09/12 11:07:04;;;;;;;2.40;2.10;;;;;;;25.91;39.46;96900.81;5097613;28;20224;-66
2021/09/12 11:09:30;;;;;;;2.77;1.90;;;;;;;26.13;39.36;96891.81;5094669;28;20423;-65
2021/09/12 11:12:03;;;;;;;2.37;2.17;;;;;;;24.92;42.42;96895.69;5095891;28;20424;-70
2021/09/12 11:14:29;;;;;;;6.03;2.30;;;;;;;24.97;41.86;96892.25;5096068;28;20596;-66
2021/09/12 11:17:05;;;;;;;2.40;2.13;;;;;;;24.74;41.93;96887.97;5095837;28;20477;-65
2021/09/12 11:19:30;;;;;;;2.73;2.20;;;;;;;24.47;42.43;96878.00;5091235;28;20484;-66
2021/09/12 11:21:56;;;;;;;2.60;2.30;;;;;;;24.53;42.67;96882.38;5095043;28;20447;-67
2021/09/12 11:24:27;;;;;;;2.60;2.10;;;;;;;24.63;42.62;96882.47;5095658;28;20288;-67
2021/09/12 11:27:04;;;;;;;2.20;2.10;;;;;;;24.73;42.27;96875.63;5095775;28;20181;-66
2021/09/12 11:29:30;;;;;;;3.17;2.60;;;;;;;24.34;43.04;96877.31;5097010;28;20419;-67
2021/09/12 11:32:03;;;;;;;4.07;2.10;;;;;;;24.59;42.98;96877.88;5095424;28;20980;-66